createdAt,value
2023-03-22T00:01:34.733Z,12.18
2023-03-22T00:04:02.422Z,10.40
2023-03-22T00:06:30.031Z,17.13
2023-03-22T00:08:57.537Z,14.43
2023-03-22T00:11:25.870Z,12.07
2023-03-22T00:13:53.757Z,16.40
2023-03-22T00:16:22.127Z,12.70
2023-03-22T00:18:49.643Z,14.65
2023-03-22T00:21:17.875Z,11.35
2023-03-22T00:23:45.559Z,10.52
2023-03-22T00:26:14.214Z,18.77
2023-03-22T00:28:42.773Z,16.23
2023-03-22T00:31:10.892Z,14.07
2023-03-22T00:33:39.107Z,10.15
2023-03-22T00:36:09.505Z,17.55
2023-03-22T00:38:44.774Z,19.33
2023-03-22T00:41:18.598Z,17.10
2023-03-22T00:43:47.749Z,17.88
2023-03-22T00:46:17.110Z,13.73
2023-03-22T00:48:45.107Z,14.68
2023-03-22T00:51:14.195Z,18.48
2023-03-22T00:53:43.457Z,14.13
2023-03-22T00:56:16.230Z,14.25
2023-03-22T00:59:06.586Z,11.88
2023-03-22T01:01:34.192Z,17.08
2023-03-22T01:04:05.035Z,18.60
2023-03-22T01:06:34.149Z,16.08
2023-03-22T01:09:01.983Z,16.20
2023-03-22T01:11:29.552Z,15.82
2023-03-22T01:13:57.232Z,12.07
2023-03-22T01:16:25.256Z,15.80
2023-03-22T01:18:52.876Z,23.77
2023-03-22T01:21:20.612Z,19.80
2023-03-22T01:23:50.367Z,14.02
2023-03-22T01:26:18.153Z,15.45
2023-03-22T01:28:45.853Z,13.73
2023-03-22T01:31:13.441Z,24.85
2023-03-22T01:33:41.128Z,12.38
2023-03-22T01:36:08.886Z,19.55
2023-03-22T01:38:36.557Z,15.90
2023-03-22T01:41:04.218Z,17.85
2023-03-22T01:43:37.249Z,24.75
2023-03-22T01:46:05.063Z,17.67
2023-03-22T01:48:42.021Z,18.50
2023-03-22T01:51:17.917Z,14.40
2023-03-22T01:54:40.691Z,23.77
2023-03-22T01:57:21.703Z,22.90
2023-03-22T01:59:50.320Z,14.45
2023-03-22T02:02:43.206Z,21.73
2023-03-22T02:05:23.339Z,20.52
2023-03-22T02:07:53.048Z,18.77
2023-03-22T02:10:27.220Z,18.27
2023-03-22T02:13:17.772Z,22.75
2023-03-22T02:16:16.537Z,25.10
2023-03-22T02:19:30.599Z,21.10
2023-03-22T02:22:28.163Z,22.42
2023-03-22T02:25:28.502Z,15.30
2023-03-22T02:28:19.493Z,22.57
2023-03-22T02:34:00.825Z,20.27
2023-03-22T02:36:53.779Z,20.70
2023-03-22T02:39:26.646Z,18.67
2023-03-22T02:42:06.788Z,19.20
2023-03-22T02:44:51.555Z,18.67
2023-03-22T02:47:24.506Z,20.73
2023-03-22T02:50:15.844Z,21.90
2023-03-22T02:53:09.765Z,21.90
2023-03-22T02:55:44.837Z,21.65
2023-03-22T02:58:23.153Z,12.88
2023-03-22T03:00:56.579Z,13.90
2023-03-22T03:03:29.301Z,21.77
2023-03-22T03:06:08.386Z,20.20
2023-03-22T03:08:38.004Z,17.50
2023-03-22T03:11:07.051Z,18.48
2023-03-22T03:13:34.803Z,19.67
2023-03-22T03:16:07.574Z,21.27
2023-03-22T03:19:07.854Z,23.52
2023-03-22T03:22:01.001Z,15.45
2023-03-22T03:24:48.680Z,23.55
2023-03-22T03:27:23.106Z,29.27
2023-03-22T03:30:01.935Z,16.80
2023-03-22T03:32:37.836Z,15.50
2023-03-22T03:35:23.006Z,18.67
2023-03-22T03:37:57.667Z,19.75
2023-03-22T03:40:34.845Z,19.88
2023-03-22T03:43:04.569Z,15.00
2023-03-22T03:45:33.560Z,18.45
2023-03-22T03:48:06.606Z,18.95
2023-03-22T03:50:34.574Z,14.48
2023-03-22T03:53:02.049Z,18.30
2023-03-22T03:55:30.877Z,17.23
2023-03-22T03:57:58.546Z,13.65
2023-03-22T04:00:26.518Z,17.77
2023-03-22T04:03:19.693Z,18.65
2023-03-22T04:06:12.860Z,18.60
2023-03-22T04:08:45.556Z,13.45
2023-03-22T04:11:15.443Z,18.08
2023-03-22T04:13:43.884Z,10.75
2023-03-22T04:16:16.129Z,11.77
2023-03-22T04:18:44.288Z,12.20
2023-03-22T04:21:13.288Z,15.30
2023-03-22T04:23:48.526Z,12.25
2023-03-22T04:26:17.428Z,20.88
2023-03-22T04:28:55.415Z,11.73
2023-03-22T04:31:23.272Z,11.40
2023-03-22T04:36:52.921Z,12.35
2023-03-22T04:39:34.615Z,9.27
2023-03-22T04:42:26.216Z,11.38
2023-03-22T04:45:04.987Z,9.95
2023-03-22T04:47:33.810Z,6.97
2023-03-22T04:50:07.681Z,15.45
2023-03-22T04:52:42.517Z,9.13
2023-03-22T04:55:10.250Z,5.22
2023-03-22T04:57:37.955Z,10.52
2023-03-22T05:00:08.565Z,8.43
2023-03-22T05:02:41.658Z,8.77
2023-03-22T05:05:16.871Z,9.52
2023-03-22T05:07:47.434Z,12.02
2023-03-22T05:10:15.512Z,8.77
2023-03-22T05:12:43.406Z,8.73
2023-03-22T05:15:22.543Z,6.72
2023-03-22T05:17:52.030Z,8.77
2023-03-22T05:20:20.359Z,8.60
2023-03-22T05:22:57.037Z,6.78
2023-03-22T05:25:27.126Z,5.47
2023-03-22T05:27:55.120Z,5.10
2023-03-22T05:30:51.449Z,8.75
2023-03-22T05:33:39.595Z,11.75
2023-03-22T05:36:11.218Z,10.65
2023-03-22T05:38:49.886Z,4.57
2023-03-22T05:41:17.574Z,7.35
2023-03-22T05:43:45.391Z,7.28
2023-03-22T05:46:13.448Z,5.38
2023-03-22T05:48:49.392Z,8.95
2023-03-22T05:51:19.242Z,10.07
2023-03-22T05:53:51.616Z,12.55
2023-03-22T05:56:24.397Z,9.45
2023-03-22T05:58:58.168Z,13.32
2023-03-22T06:01:26.021Z,12.63
2023-03-22T06:04:15.500Z,12.02
2023-03-22T06:06:53.888Z,8.98
2023-03-22T06:09:47.817Z,8.00
2023-03-22T06:12:24.589Z,12.75
2023-03-22T06:15:01.098Z,6.47
2023-03-22T06:17:44.015Z,7.38
2023-03-22T06:20:15.657Z,8.32
2023-03-22T06:22:50.081Z,7.75
2023-03-22T06:25:18.876Z,7.82
2023-03-22T06:27:49.484Z,9.07
2023-03-22T06:30:19.661Z,10.10
2023-03-22T06:33:06.227Z,8.93
2023-03-22T06:35:38.369Z,7.38
2023-03-22T06:38:08.080Z,10.48
2023-03-22T06:40:38.036Z,5.90
2023-03-22T06:43:07.409Z,8.32
2023-03-22T06:45:37.869Z,7.07
2023-03-22T06:48:06.768Z,8.77
2023-03-22T06:50:45.733Z,6.88
2023-03-22T06:53:16.076Z,8.75
2023-03-22T06:55:44.250Z,9.20
2023-03-22T06:58:16.215Z,11.25
2023-03-22T07:00:44.878Z,7.85
2023-03-22T07:03:14.424Z,8.50
2023-03-22T07:08:37.073Z,11.18
2023-03-22T07:11:06.511Z,6.25
2023-03-22T07:13:34.357Z,5.57
2023-03-22T07:16:09.058Z,10.55
2023-03-22T07:18:45.415Z,8.77
2023-03-22T07:21:13.035Z,9.57
2023-03-22T07:23:43.106Z,12.52
2023-03-22T07:26:15.003Z,13.07
2023-03-22T07:28:46.135Z,10.23
2023-03-22T07:31:16.105Z,15.50
2023-03-22T07:33:52.635Z,17.10
2023-03-22T07:36:25.599Z,14.00
2023-03-22T07:38:54.283Z,18.63
2023-03-22T07:41:32.491Z,20.80
2023-03-22T07:44:23.375Z,14.60
2023-03-22T07:47:09.361Z,16.92
2023-03-22T07:49:51.484Z,14.85
2023-03-22T07:52:25.208Z,17.70
2023-03-22T07:54:52.703Z,24.63
2023-03-22T07:57:20.125Z,17.85
2023-03-22T07:59:54.427Z,21.23
2023-03-22T08:02:24.285Z,17.85
2023-03-22T08:04:56.481Z,20.02
2023-03-22T08:07:37.589Z,22.27
2023-03-22T08:10:05.750Z,18.77
2023-03-22T08:12:34.948Z,21.58
2023-03-22T08:15:13.261Z,16.80
2023-03-22T08:17:42.471Z,17.77
2023-03-22T08:20:18.402Z,17.38
2023-03-22T08:22:51.430Z,20.02
2023-03-22T08:25:22.349Z,21.85
2023-03-22T08:27:51.400Z,23.80
2023-03-22T08:30:19.156Z,19.48
2023-03-22T08:32:46.770Z,15.77
2023-03-22T08:35:14.159Z,21.55
2023-03-22T08:37:42.559Z,16.85
2023-03-22T08:40:11.571Z,12.98
2023-03-22T08:42:46.799Z,21.75
2023-03-22T08:45:15.006Z,12.30
2023-03-22T08:47:49.032Z,13.18
2023-03-22T08:50:18.809Z,14.02
2023-03-22T08:52:53.878Z,10.13
2023-03-22T08:55:31.598Z,15.75
2023-03-22T08:58:20.045Z,7.35
2023-03-22T09:00:49.701Z,9.35
2023-03-22T09:03:47.305Z,10.10
2023-03-22T09:06:15.432Z,8.35
2023-03-22T09:08:44.624Z,9.57
2023-03-22T09:11:17.889Z,7.25
2023-03-22T09:13:48.852Z,8.10
2023-03-22T09:16:17.240Z,10.60
2023-03-22T09:18:46.378Z,8.82
2023-03-22T09:21:18.106Z,13.75
2023-03-22T09:23:53.097Z,9.40
2023-03-22T09:26:27.193Z,12.48
2023-03-22T09:28:55.751Z,9.32
2023-03-22T09:31:23.538Z,8.52
2023-03-22T09:34:02.419Z,10.85
2023-03-22T09:36:32.295Z,8.73
2023-03-22T09:39:00.102Z,6.90
2023-03-22T09:41:45.881Z,6.60
2023-03-22T09:44:28.691Z,5.95
2023-03-22T09:46:59.984Z,8.05
2023-03-22T09:49:50.536Z,6.03
2023-03-22T09:52:21.359Z,5.03
2023-03-22T09:54:51.531Z,4.00
2023-03-22T09:57:30.126Z,5.22
2023-03-22T10:00:29.734Z,3.67
2023-03-22T10:03:28.780Z,1.33
2023-03-22T10:06:06.593Z,3.47
2023-03-22T10:08:47.536Z,5.72
2023-03-22T10:11:30.666Z,4.28
2023-03-22T10:14:14.156Z,2.95
2023-03-22T10:16:43.118Z,3.63
2023-03-22T10:19:21.316Z,3.05
2023-03-22T10:21:51.364Z,4.28
2023-03-22T10:24:27.163Z,6.30
2023-03-22T10:26:55.252Z,4.85
2023-03-22T10:29:39.865Z,5.70
2023-03-22T10:32:22.530Z,4.82
2023-03-22T10:34:51.547Z,4.43
2023-03-22T10:37:24.888Z,4.00
2023-03-22T10:39:55.877Z,5.53
2023-03-22T10:42:27.940Z,3.53
2023-03-22T10:45:07.081Z,1.60
2023-03-22T10:47:42.752Z,2.38
2023-03-22T10:50:22.364Z,3.53
2023-03-22T10:53:21.987Z,3.33
2023-03-22T10:55:49.532Z,2.15
2023-03-22T10:58:20.800Z,1.92
2023-03-22T11:00:59.618Z,3.10
2023-03-22T11:03:36.420Z,3.42
2023-03-22T11:06:06.870Z,1.73
2023-03-22T11:08:52.160Z,2.67
2023-03-22T11:11:28.390Z,6.80
2023-03-22T11:14:14.140Z,3.53
2023-03-22T11:16:55.004Z,5.75
2023-03-22T11:19:47.234Z,5.53
2023-03-22T11:22:37.755Z,5.65
2023-03-22T11:25:27.842Z,3.58
2023-03-22T11:28:10.257Z,7.15
2023-03-22T11:30:38.122Z,4.38
2023-03-22T11:33:08.612Z,4.65
2023-03-22T11:35:38.880Z,2.22
2023-03-22T11:38:07.529Z,2.33
2023-03-22T11:40:36.679Z,1.67
2023-03-22T11:43:20.731Z,1.48
2023-03-22T11:45:53.436Z,2.05
2023-03-22T11:48:28.221Z,1.13
2023-03-22T11:51:08.744Z,1.75
2023-03-22T11:53:42.626Z,1.90
2023-03-22T11:56:12.786Z,0.32
2023-03-22T11:59:07.586Z,1.00
2023-03-22T12:02:05.117Z,2.38
2023-03-22T12:04:39.407Z,3.92
2023-03-22T12:07:16.268Z,0.75
2023-03-22T12:09:46.793Z,0.50
2023-03-22T12:12:21.627Z,3.92
2023-03-22T12:14:52.819Z,1.15
2023-03-22T12:17:36.614Z,1.45
2023-03-22T12:20:08.457Z,1.00
2023-03-22T12:22:41.849Z,0.90
2023-03-22T12:25:15.929Z,0.82
2023-03-22T12:27:52.016Z,1.70
2023-03-22T12:30:26.726Z,0.68
2023-03-22T12:33:02.350Z,1.85
2023-03-22T12:35:33.665Z,1.05
2023-03-22T12:38:27.768Z,1.45
2023-03-22T12:41:00.435Z,1.80
2023-03-22T12:44:03.314Z,0.90
2023-03-22T12:46:35.922Z,1.17
2023-03-22T12:49:15.651Z,1.70
2023-03-22T12:51:44.681Z,0.82
2023-03-22T12:54:15.318Z,2.72
2023-03-22T12:56:46.058Z,4.07
2023-03-22T13:01:52.265Z,1.08
2023-03-22T13:04:33.952Z,1.95
2023-03-22T13:07:16.671Z,1.98
2023-03-22T13:09:49.618Z,1.13
2023-03-22T13:12:17.291Z,3.58
2023-03-22T13:14:56.651Z,2.50
2023-03-22T13:17:24.927Z,4.90
2023-03-22T13:20:06.860Z,4.55
2023-03-22T13:22:37.781Z,4.88
2023-03-22T13:25:14.653Z,4.53
2023-03-22T13:27:57.591Z,4.22
2023-03-22T13:31:10.741Z,7.88
2023-03-22T13:33:38.959Z,3.85
2023-03-22T13:36:26.028Z,3.88
2023-03-22T13:38:59.157Z,4.75
2023-03-22T13:41:30.119Z,9.50
2023-03-22T13:44:03.634Z,8.65
2023-03-22T13:46:40.865Z,8.45
2023-03-22T13:49:28.071Z,9.80
2023-03-22T13:52:00.724Z,7.25
2023-03-22T13:54:44.235Z,10.10
2023-03-22T13:57:37.774Z,14.02
2023-03-22T14:00:36.688Z,12.32
2023-03-22T14:03:35.848Z,12.82
2023-03-22T14:06:22.192Z,14.70
2023-03-22T14:08:54.462Z,11.93
2023-03-22T14:11:46.032Z,12.60
2023-03-22T14:14:19.278Z,12.27
2023-03-22T14:16:53.581Z,16.35
2023-03-22T14:19:25.707Z,21.70
